CYTS

Timmins Airport

Timmins, , Canada
METAR CYTS 252200Z 34007KT 15SM FEW050 BKN100 BKN200 22/16 A2965 RMK CU1AC5CI1 SLP042 DENSITY ALT 2300FT
Observed Flight Rules
May-25 @ 22:00 UTC (30 minutes ago) Visual Flight Rules
Wind Visibility Clouds
340° at 7 knots 15 miles
  • Few at 5,000' AGL
  • Broken at 10,000' AGL
  • Broken at 20,000' AGL
Temperatures Readings
Current 22°C / 72°F
Dewpoint 16°C / 61°F
Humidity 69%
Altimeter 29.65" Hg
Pressure 1004.2 hPa
Elevation 295
METAR CYTS 252200Z 34007KT 15SM FEW050 BKN100 BKN200 22/16 A2965 RMK CU1AC5CI1 SLP042 DENSITY ALT 2300FT
Observed Flight Rules
May-25 @ 22:00 UTC
(30 minutes ago)
VFR
Wind Visibility
340° at 7 knots 15 miles
Clouds
  • Few at 5,000' AGL
  • Broken at 10,000' AGL
  • Broken at 20,000' AGL
Temperature Dewpoint
22°C / 72°F 16°C / 61°F
Humidity Altimeter Pressure
69% 29.65" Hg 1004.2 hPa